createdAt,value
2019-04-21T00:03:23.199Z,1.03
2019-04-21T00:08:42.845Z,0.95
2019-04-21T00:13:42.490Z,0.95
2019-04-21T00:19:03.000Z,1.03
2019-04-21T00:24:24.196Z,0.88
2019-04-21T00:29:38.342Z,0.87
2019-04-21T00:34:25.732Z,0.54
2019-04-21T00:44:56.610Z,1.12
2019-04-21T00:50:05.196Z,1.27
2019-04-21T00:55:30.928Z,1.31
2019-04-21T01:00:30.420Z,0.99
2019-04-21T01:05:42.835Z,0.82
2019-04-21T01:10:34.905Z,0.49
2019-04-21T01:15:53.077Z,0.58
2019-04-21T01:20:37.668Z,0.61
2019-04-21T01:25:55.828Z,0.53
2019-04-21T01:31:10.979Z,0.43
2019-04-21T01:36:14.090Z,0.34
2019-04-21T01:41:28.086Z,0.34
2019-04-21T01:46:30.994Z,0.44
2019-04-21T01:51:57.884Z,0.49
2019-04-21T01:57:00.084Z,0.68
2019-04-21T02:02:08.047Z,0.69
2019-04-21T02:07:13.101Z,0.75
2019-04-21T02:12:18.902Z,0.73
2019-04-21T02:17:29.190Z,0.55
2019-04-21T02:22:56.015Z,0.74
2019-04-21T02:27:42.924Z,0.58
2019-04-21T02:33:19.241Z,0.41
2019-04-21T02:38:14.049Z,0.45
2019-04-21T02:48:36.991Z,0.28
2019-04-21T02:58:43.600Z,0.11
2019-04-21T03:08:58.799Z,0.29
2019-04-21T03:14:33.165Z,0.07
2019-04-21T03:19:17.595Z,0.38
2019-04-21T03:24:32.339Z,0.21
2019-04-21T03:29:29.518Z,0.50
2019-04-21T03:35:07.694Z,0.71
2019-04-21T03:39:45.554Z,0.75
2019-04-21T03:44:45.747Z,0.55
2019-04-21T04:00:50.274Z,0.39
2019-04-21T04:06:03.731Z,0.38
2019-04-21T04:11:19.608Z,0.51
2019-04-21T04:16:10.659Z,0.51
2019-04-21T04:21:20.909Z,0.61
2019-04-21T04:26:26.241Z,0.78
2019-04-21T04:42:04.955Z,3.46
2019-04-21T04:47:05.855Z,6.20
2019-04-21T04:57:34.329Z,7.09
2019-04-21T05:02:27.789Z,8.83
2019-04-21T05:07:33.184Z,8.24
2019-04-21T05:12:36.197Z,6.71
2019-04-21T05:17:48.408Z,6.02
2019-04-21T05:22:42.819Z,6.71
2019-04-21T05:27:43.394Z,8.40
2019-04-21T05:33:09.315Z,11.13
2019-04-21T05:38:16.775Z,11.23
2019-04-21T05:43:28.316Z,9.99
2019-04-21T05:48:43.140Z,10.58
2019-04-21T05:53:53.332Z,11.04
2019-04-21T05:58:57.963Z,11.00
2019-04-21T06:04:03.600Z,11.52
2019-04-21T06:09:08.332Z,11.59
2019-04-21T06:14:26.575Z,12.00
2019-04-21T06:19:31.167Z,12.01
2019-04-21T06:24:31.382Z,12.33
2019-04-21T06:29:46.583Z,12.51
2019-04-21T06:35:06.283Z,12.98
2019-04-21T06:40:10.020Z,13.48
2019-04-21T06:45:25.434Z,12.13
2019-04-21T06:50:13.584Z,12.97
2019-04-21T06:55:20.320Z,12.91
2019-04-21T07:00:27.650Z,13.34
2019-04-21T07:05:34.627Z,13.42
2019-04-21T07:10:37.086Z,13.57
2019-04-21T07:16:00.504Z,13.40
2019-04-21T07:20:54.916Z,12.91
2019-04-21T07:26:04.539Z,13.22
2019-04-21T07:31:10.894Z,13.01
2019-04-21T07:36:21.343Z,13.05
2019-04-21T07:41:15.831Z,13.36
2019-04-21T07:46:22.379Z,13.47
2019-04-21T07:51:47.681Z,13.21
2019-04-21T07:56:38.277Z,13.78
2019-04-21T08:02:17.066Z,13.18
2019-04-21T08:07:05.076Z,12.91
2019-04-21T08:12:08.196Z,13.12
2019-04-21T08:17:16.500Z,13.88
2019-04-21T08:22:33.439Z,14.04
2019-04-21T08:27:41.801Z,14.18
2019-04-21T08:32:53.995Z,14.47
2019-04-21T08:37:48.418Z,14.36
2019-04-21T08:42:58.189Z,14.26
2019-04-21T08:48:04.512Z,14.38
2019-04-21T08:53:20.870Z,14.42
2019-04-21T08:58:59.199Z,14.67
2019-04-21T09:04:18.582Z,13.95
2019-04-21T09:09:11.883Z,13.66
2019-04-21T09:14:20.619Z,13.98
2019-04-21T09:19:26.334Z,14.33
2019-04-21T09:24:36.351Z,14.77
2019-04-21T09:29:31.001Z,14.54
2019-04-21T09:34:33.170Z,14.63
2019-04-21T09:39:43.322Z,14.86
2019-04-21T09:44:45.739Z,14.86
2019-04-21T09:49:49.967Z,14.92
2019-04-21T09:55:04.275Z,15.00
2019-04-21T10:00:08.759Z,15.18
2019-04-21T10:05:12.373Z,15.72
2019-04-21T10:10:19.231Z,15.56
2019-04-21T10:15:27.873Z,15.64
2019-04-21T10:20:33.373Z,15.21
2019-04-21T10:25:38.928Z,15.33
2019-04-21T10:30:44.803Z,15.44
2019-04-21T10:35:50.906Z,15.39
2019-04-21T10:40:57.146Z,15.17
2019-04-21T10:46:02.808Z,14.95
2019-04-21T10:51:08.409Z,14.95
2019-04-21T10:56:21.853Z,15.36
2019-04-21T11:01:23.278Z,15.61
2019-04-21T11:06:28.882Z,15.70
2019-04-21T11:11:34.529Z,16.25
2019-04-21T11:16:41.596Z,16.23
2019-04-21T11:21:47.334Z,15.75
2019-04-21T11:26:53.817Z,15.23
2019-04-21T11:32:00.877Z,15.33
2019-04-21T11:37:08.527Z,15.20
2019-04-21T11:42:15.807Z,15.15
2019-04-21T11:47:30.310Z,15.61
2019-04-21T11:52:36.928Z,15.71
2019-04-21T11:57:46.263Z,15.11
2019-04-21T12:02:51.202Z,14.98
2019-04-21T12:07:58.511Z,14.57
2019-04-21T12:13:07.025Z,14.31
2019-04-21T12:18:12.131Z,14.18
2019-04-21T12:23:18.396Z,14.24
2019-04-21T12:28:24.095Z,14.38
2019-04-21T12:33:40.628Z,14.22
2019-04-21T12:38:50.898Z,13.90
2019-04-21T12:43:54.885Z,14.09
2019-04-21T12:49:02.044Z,13.94
2019-04-21T12:54:08.118Z,14.01
2019-04-21T12:59:14.822Z,13.76
2019-04-21T13:04:21.762Z,13.61
2019-04-21T13:09:30.408Z,13.64
2019-04-21T13:14:35.860Z,13.81
2019-04-21T13:19:41.722Z,13.98
2019-04-21T13:24:47.587Z,14.07
2019-04-21T13:29:54.463Z,14.27
2019-04-21T13:35:01.196Z,14.81
2019-04-21T13:40:34.429Z,14.93
2019-04-21T13:45:25.934Z,14.95
2019-04-21T13:50:33.180Z,14.62
2019-04-21T13:55:39.297Z,14.51
2019-04-21T14:00:47.669Z,14.44
2019-04-21T14:05:54.158Z,14.56
2019-04-21T14:11:01.731Z,14.43
2019-04-21T14:16:08.148Z,14.44
2019-04-21T14:21:15.473Z,14.75
2019-04-21T14:26:22.391Z,14.58
2019-04-21T14:31:28.465Z,14.36
2019-04-21T14:36:35.203Z,14.29
2019-04-21T14:41:42.117Z,14.12
2019-04-21T14:46:53.550Z,14.41
2019-04-21T14:52:07.221Z,14.98
2019-04-21T14:57:13.606Z,15.38
2019-04-21T15:02:20.241Z,14.99
2019-04-21T15:07:27.484Z,14.53
2019-04-21T15:12:34.001Z,14.49
2019-04-21T15:17:39.893Z,14.51
2019-04-21T15:22:46.229Z,14.68
2019-04-21T15:27:52.832Z,14.90
2019-04-21T15:32:58.512Z,14.96
2019-04-21T15:38:04.251Z,15.18
2019-04-21T15:43:10.663Z,14.87
2019-04-21T15:48:16.526Z,14.88
2019-04-21T15:53:23.737Z,14.69
2019-04-21T15:58:30.889Z,14.68
2019-04-21T16:03:36.602Z,14.72
2019-04-21T16:08:46.582Z,14.38
2019-04-21T16:13:49.874Z,14.23
2019-04-21T16:18:56.245Z,13.92
2019-04-21T16:24:02.646Z,13.83
2019-04-21T16:29:09.087Z,13.85
2019-04-21T16:34:15.793Z,13.87
2019-04-21T16:39:23.219Z,13.60
2019-04-21T16:44:29.415Z,13.37
2019-04-21T16:49:35.851Z,13.07
2019-04-21T16:54:44.125Z,12.69
2019-04-21T16:59:52.637Z,12.24
2019-04-21T17:04:58.469Z,11.93
2019-04-21T17:10:04.618Z,11.69
2019-04-21T17:15:29.400Z,11.19
2019-04-21T17:20:35.951Z,10.81
2019-04-21T17:25:29.351Z,10.31
2019-04-21T17:30:34.753Z,9.93
2019-04-21T17:35:40.809Z,9.56
2019-04-21T17:40:47.544Z,9.20
2019-04-21T17:45:53.403Z,8.88
2019-04-21T17:51:17.294Z,8.66
2019-04-21T17:56:55.178Z,8.39
2019-04-21T18:01:54.613Z,8.23
2019-04-21T18:06:57.851Z,7.90
2019-04-21T18:12:12.192Z,7.82
2019-04-21T18:17:00.368Z,7.83
2019-04-21T18:22:12.832Z,7.79
2019-04-21T18:27:19.724Z,7.67
2019-04-21T18:32:30.775Z,7.58
2019-04-21T18:37:40.845Z,7.58
2019-04-21T18:43:15.385Z,7.41
2019-04-21T18:48:06.707Z,7.25
2019-04-21T18:53:14.418Z,7.09
2019-04-21T18:58:14.176Z,7.00
2019-04-21T19:03:29.242Z,6.86
2019-04-21T19:08:46.886Z,6.72
2019-04-21T19:14:13.240Z,6.66
2019-04-21T19:24:25.361Z,6.44
2019-04-21T19:29:29.728Z,6.38
2019-04-21T19:34:23.672Z,6.27
2019-04-21T19:39:39.184Z,6.23
2019-04-21T19:44:47.259Z,6.39
2019-04-21T19:49:55.646Z,5.90
2019-04-21T19:54:48.615Z,5.79
2019-04-21T19:59:55.863Z,5.69
2019-04-21T20:05:04.952Z,5.43
2019-04-21T20:10:27.257Z,6.09
2019-04-21T20:15:42.271Z,5.49
2019-04-21T20:20:24.982Z,5.56
2019-04-21T20:25:34.575Z,5.56
2019-04-21T20:30:58.338Z,5.33
2019-04-21T20:36:06.229Z,5.77
2019-04-21T20:41:01.882Z,5.89
2019-04-21T20:46:12.237Z,5.85
2019-04-21T20:51:23.559Z,5.44
2019-04-21T20:56:27.692Z,5.44
2019-04-21T21:01:40.035Z,5.32
2019-04-21T21:06:47.199Z,5.26
2019-04-21T21:12:09.507Z,5.43
2019-04-21T21:17:05.926Z,4.95
2019-04-21T21:21:59.204Z,4.95
2019-04-21T21:27:14.213Z,4.97
2019-04-21T21:32:20.884Z,4.86
2019-04-21T21:42:27.567Z,4.78
2019-04-21T21:47:48.508Z,4.81
2019-04-21T21:52:47.833Z,4.78
2019-04-21T21:57:48.706Z,4.62
2019-04-21T22:02:53.227Z,4.61
2019-04-21T22:07:58.371Z,4.45
2019-04-21T22:13:09.646Z,4.60
2019-04-21T22:18:28.708Z,4.59
2019-04-21T22:23:32.355Z,4.83
2019-04-21T22:28:27.539Z,5.01
2019-04-21T22:33:41.933Z,4.91
2019-04-21T22:38:51.902Z,5.00
2019-04-21T22:43:51.753Z,5.34
2019-04-21T22:48:59.753Z,5.09
2019-04-21T22:54:03.900Z,4.95
2019-04-21T22:59:15.973Z,5.27
2019-04-21T23:04:17.757Z,5.27
2019-04-21T23:09:24.621Z,5.10
2019-04-21T23:14:32.444Z,4.92
2019-04-21T23:20:00.020Z,4.64
2019-04-21T23:25:03.346Z,4.64
2019-04-21T23:30:21.346Z,4.37
2019-04-21T23:35:10.595Z,4.21
2019-04-21T23:40:14.839Z,4.10
2019-04-21T23:45:18.286Z,4.26
2019-04-21T23:50:34.287Z,4.21
2019-04-21T23:55:31.377Z,4.18
